createdAt,value
2022-12-19T00:01:36.719Z,4.70
2022-12-19T00:04:07.637Z,4.70
2022-12-19T00:06:34.787Z,4.70
2022-12-19T00:09:01.907Z,4.70
2022-12-19T00:11:30.150Z,4.70
2022-12-19T00:13:57.895Z,4.70
2022-12-19T00:16:27.111Z,4.70
2022-12-19T00:18:55.828Z,4.80
2022-12-19T00:21:24.799Z,4.80
2022-12-19T00:23:52.502Z,4.80
2022-12-19T00:26:20.766Z,4.80
2022-12-19T00:28:53.192Z,4.90
2022-12-19T00:31:21.497Z,4.90
2022-12-19T00:33:49.439Z,4.90
2022-12-19T00:36:22.553Z,5.00
2022-12-19T00:38:51.785Z,5.00
2022-12-19T00:41:23.718Z,5.00
2022-12-19T00:43:55.168Z,5.00
2022-12-19T00:46:22.551Z,5.10
2022-12-19T00:48:49.550Z,5.10
2022-12-19T00:51:19.413Z,5.10
2022-12-19T00:53:48.372Z,5.10
2022-12-19T00:56:18.219Z,5.10
2022-12-19T00:58:47.268Z,5.20
2022-12-19T01:01:17.558Z,5.20
2022-12-19T01:04:04.291Z,5.20
2022-12-19T01:06:32.368Z,5.20
2022-12-19T01:09:00.466Z,5.30
2022-12-19T01:11:45.733Z,5.30
2022-12-19T01:14:19.199Z,5.30
2022-12-19T01:16:49.709Z,5.40
2022-12-19T01:19:16.661Z,5.40
2022-12-19T01:21:43.506Z,5.50
2022-12-19T01:24:15.808Z,5.60
2022-12-19T01:26:49.412Z,5.60
2022-12-19T01:29:16.282Z,5.70
2022-12-19T01:31:43.391Z,5.70
2022-12-19T01:34:10.671Z,5.80
2022-12-19T01:36:39.821Z,5.80
2022-12-19T01:39:08.085Z,5.90
2022-12-19T01:41:35.548Z,5.90
2022-12-19T01:44:07.057Z,5.90
2022-12-19T01:46:38.563Z,6.00
2022-12-19T01:49:10.823Z,6.00
2022-12-19T01:51:44.005Z,6.10
2022-12-19T01:54:15.771Z,6.10
2022-12-19T01:56:46.039Z,6.10
2022-12-19T01:59:33.214Z,6.20
2022-12-19T02:02:19.658Z,6.20
2022-12-19T02:04:47.509Z,6.20
2022-12-19T02:07:17.312Z,6.30
2022-12-19T02:09:46.973Z,6.30
2022-12-19T02:12:14.771Z,6.40
2022-12-19T02:14:42.205Z,6.40
2022-12-19T02:17:24.600Z,6.50
2022-12-19T02:20:32.052Z,6.50
2022-12-19T02:23:26.325Z,6.50
2022-12-19T02:26:09.488Z,6.60
2022-12-19T02:28:45.459Z,6.60
2022-12-19T02:31:35.021Z,6.60
2022-12-19T02:34:18.835Z,6.70
2022-12-19T02:37:20.949Z,6.70
2022-12-19T02:40:00.003Z,6.70
2022-12-19T02:42:32.286Z,6.70
2022-12-19T02:45:05.912Z,6.70
2022-12-19T02:47:34.013Z,6.70
2022-12-19T02:50:02.864Z,6.70
2022-12-19T02:52:30.216Z,6.80
2022-12-19T02:55:04.585Z,6.80
2022-12-19T02:57:46.585Z,6.80
2022-12-19T03:00:20.762Z,6.80
2022-12-19T03:03:01.154Z,6.90
2022-12-19T03:05:49.233Z,6.90
2022-12-19T03:08:26.222Z,7.00
2022-12-19T03:10:59.792Z,7.00
2022-12-19T03:13:38.673Z,7.10
2022-12-19T03:16:09.497Z,7.10
2022-12-19T03:18:37.788Z,7.10
2022-12-19T03:21:13.564Z,7.20
2022-12-19T03:23:41.659Z,7.20
2022-12-19T03:26:20.481Z,7.20
2022-12-19T03:28:50.233Z,7.20
2022-12-19T03:31:20.827Z,7.30
2022-12-19T03:33:51.633Z,7.30
2022-12-19T03:36:22.836Z,7.30
2022-12-19T03:38:50.201Z,7.40
2022-12-19T03:41:38.907Z,7.40
2022-12-19T03:44:08.707Z,7.40
2022-12-19T03:46:39.959Z,7.40
2022-12-19T03:49:07.290Z,7.40
2022-12-19T03:51:59.506Z,7.40
2022-12-19T03:54:34.035Z,7.50
2022-12-19T03:57:19.507Z,7.50
2022-12-19T03:59:50.773Z,7.50
2022-12-19T04:02:21.046Z,7.50
2022-12-19T04:04:53.097Z,7.60
2022-12-19T04:07:21.628Z,7.60
2022-12-19T04:09:51.196Z,7.60
2022-12-19T04:12:22.969Z,7.60
2022-12-19T04:14:50.381Z,7.60
2022-12-19T04:17:30.709Z,7.70
2022-12-19T04:20:08.550Z,7.70
2022-12-19T04:23:02.837Z,7.70
2022-12-19T04:25:35.469Z,7.80
2022-12-19T04:28:07.942Z,7.80
2022-12-19T04:30:36.380Z,7.90
2022-12-19T04:33:04.484Z,7.90
2022-12-19T04:35:31.707Z,7.90
2022-12-19T04:37:58.862Z,7.90
2022-12-19T04:40:25.801Z,8.00
2022-12-19T04:42:52.686Z,8.00
2022-12-19T04:45:19.666Z,8.00
2022-12-19T04:47:46.767Z,8.10
2022-12-19T04:50:13.746Z,8.10
2022-12-19T04:52:40.646Z,8.10
2022-12-19T04:55:08.235Z,8.20
2022-12-19T04:57:35.205Z,8.20
2022-12-19T05:00:04.025Z,8.30
2022-12-19T05:02:31.224Z,8.30
2022-12-19T05:04:58.268Z,8.40
2022-12-19T05:07:25.177Z,8.40
2022-12-19T05:09:52.161Z,8.50
2022-12-19T05:12:19.142Z,8.50
2022-12-19T05:14:46.056Z,8.60
2022-12-19T05:17:13.048Z,8.60
2022-12-19T05:19:39.999Z,8.60
2022-12-19T05:22:06.893Z,8.70
2022-12-19T05:24:33.823Z,8.70
2022-12-19T05:27:00.758Z,8.80
2022-12-19T05:29:27.723Z,8.80
2022-12-19T05:31:54.637Z,8.90
2022-12-19T05:34:21.666Z,9.00
2022-12-19T05:36:48.583Z,9.00
2022-12-19T05:39:15.622Z,9.00
2022-12-19T05:41:46.289Z,9.10
2022-12-19T05:44:15.851Z,9.10
2022-12-19T05:46:42.813Z,9.20
2022-12-19T05:49:09.751Z,9.20
2022-12-19T05:51:36.837Z,9.30
2022-12-19T05:54:04.132Z,9.30
2022-12-19T05:56:31.059Z,9.30
2022-12-19T05:58:58.029Z,9.40
2022-12-19T06:01:27.503Z,9.40
2022-12-19T06:03:55.380Z,9.40
2022-12-19T06:06:25.107Z,9.50
2022-12-19T06:08:57.133Z,9.50
2022-12-19T06:11:25.024Z,9.50
2022-12-19T06:13:52.157Z,9.60
2022-12-19T06:16:21.511Z,9.60
2022-12-19T06:18:48.517Z,9.60
2022-12-19T06:21:18.287Z,9.70
2022-12-19T06:23:45.677Z,9.70
2022-12-19T06:26:18.995Z,9.80
2022-12-19T06:28:48.513Z,9.80
2022-12-19T06:31:16.020Z,9.80
2022-12-19T06:33:43.081Z,9.80
2022-12-19T06:36:30.508Z,9.90
2022-12-19T06:38:58.541Z,9.90
2022-12-19T06:41:44.995Z,9.90
2022-12-19T06:44:17.293Z,9.90
2022-12-19T06:46:44.534Z,10.00
2022-12-19T06:49:12.200Z,10.00
2022-12-19T06:51:39.205Z,10.00
2022-12-19T06:54:06.604Z,10.00
2022-12-19T06:56:37.574Z,10.00
2022-12-19T06:59:05.754Z,10.10
2022-12-19T07:01:57.098Z,10.10
2022-12-19T07:04:32.687Z,10.10
2022-12-19T07:07:00.869Z,10.10
2022-12-19T07:09:30.470Z,10.10
2022-12-19T07:11:58.054Z,10.10
2022-12-19T07:14:25.002Z,10.20
2022-12-19T07:16:53.337Z,10.20
2022-12-19T07:19:23.086Z,10.20
2022-12-19T07:21:50.275Z,10.20
2022-12-19T07:24:17.422Z,10.30
2022-12-19T07:26:48.401Z,10.30
2022-12-19T07:29:15.356Z,10.30
2022-12-19T07:31:42.338Z,10.30
2022-12-19T07:34:10.066Z,10.40
2022-12-19T07:36:37.092Z,10.40
2022-12-19T07:39:04.238Z,10.40
2022-12-19T07:41:31.242Z,10.40
2022-12-19T07:43:58.437Z,10.50
2022-12-19T07:46:29.629Z,10.50
2022-12-19T07:48:57.351Z,10.50
2022-12-19T07:51:24.469Z,10.50
2022-12-19T07:53:51.391Z,10.50
2022-12-19T07:56:18.313Z,10.60
2022-12-19T07:58:45.290Z,10.60
2022-12-19T08:01:15.046Z,10.60
2022-12-19T08:03:42.065Z,10.60
2022-12-19T08:06:09.840Z,10.60
2022-12-19T08:08:37.948Z,10.70
2022-12-19T08:11:11.191Z,10.70
2022-12-19T08:13:43.326Z,10.70
2022-12-19T08:16:13.269Z,10.70
2022-12-19T08:18:40.600Z,10.70
2022-12-19T08:21:08.992Z,10.70
2022-12-19T08:23:36.320Z,10.70
2022-12-19T08:26:06.099Z,10.70
2022-12-19T08:28:34.867Z,10.70
2022-12-19T08:31:13.981Z,10.70
2022-12-19T08:33:41.057Z,10.80
2022-12-19T08:36:13.442Z,10.80
2022-12-19T08:38:40.972Z,10.80
2022-12-19T08:41:09.246Z,10.80
2022-12-19T08:43:36.775Z,10.80
2022-12-19T08:46:04.169Z,10.90
2022-12-19T08:48:35.356Z,10.90
2022-12-19T08:51:05.581Z,10.90
2022-12-19T08:53:34.688Z,10.90
2022-12-19T08:56:06.593Z,10.90
2022-12-19T08:58:34.549Z,10.90
2022-12-19T09:01:05.934Z,10.90
2022-12-19T09:04:04.622Z,10.90
2022-12-19T09:06:20.747Z,10.90
2022-12-19T09:08:48.191Z,10.90
2022-12-19T09:11:17.471Z,10.90
2022-12-19T09:13:45.097Z,10.90
2022-12-19T09:16:19.703Z,10.90
2022-12-19T09:18:49.030Z,10.90
2022-12-19T09:21:17.303Z,10.90
2022-12-19T09:23:52.465Z,10.90
2022-12-19T09:26:24.221Z,11.00
2022-12-19T09:28:54.000Z,11.00
2022-12-19T09:31:23.258Z,11.00
2022-12-19T09:33:50.853Z,11.00
2022-12-19T09:36:23.501Z,11.10
2022-12-19T09:38:53.320Z,11.10
2022-12-19T09:41:38.343Z,11.10
2022-12-19T09:44:42.223Z,11.10
2022-12-19T09:47:20.213Z,11.10
2022-12-19T09:49:48.281Z,11.10
2022-12-19T09:52:33.808Z,11.10
2022-12-19T09:55:06.800Z,11.10
2022-12-19T09:57:49.642Z,11.10
2022-12-19T10:00:20.141Z,11.10
2022-12-19T10:03:19.673Z,11.10
2022-12-19T10:07:07.838Z,11.10
2022-12-19T10:09:25.591Z,11.20
2022-12-19T10:12:42.260Z,11.20
2022-12-19T10:14:46.685Z,11.20
2022-12-19T10:17:37.912Z,11.20
2022-12-19T10:20:20.519Z,11.30
2022-12-19T10:23:32.269Z,11.30
2022-12-19T10:26:23.441Z,11.40
2022-12-19T10:29:54.679Z,11.40
2022-12-19T10:32:46.761Z,11.40
2022-12-19T10:35:18.924Z,11.50
2022-12-19T10:38:09.292Z,11.50
2022-12-19T10:40:43.960Z,11.50
2022-12-19T10:43:42.559Z,11.50
2022-12-19T10:46:20.253Z,11.50
2022-12-19T10:48:50.694Z,11.50
2022-12-19T10:51:29.319Z,11.50
2022-12-19T10:53:58.850Z,11.60
2022-12-19T10:56:37.216Z,11.60
2022-12-19T10:59:17.589Z,11.60
2022-12-19T11:01:45.305Z,11.60
2022-12-19T11:04:34.498Z,11.60
2022-12-19T11:07:04.642Z,11.60
2022-12-19T11:09:40.949Z,11.70
2022-12-19T11:16:35.559Z,11.70
2022-12-19T11:20:08.554Z,11.70
2022-12-19T11:25:14.594Z,11.70
2022-12-19T11:29:30.353Z,11.70
2022-12-19T11:29:42.536Z,11.80
2022-12-19T11:30:43.366Z,11.80
2022-12-19T11:33:17.216Z,11.80
2022-12-19T11:35:53.123Z,11.90
2022-12-19T11:38:32.399Z,11.90
2022-12-19T11:41:05.121Z,12.00
2022-12-19T11:44:02.123Z,12.00
2022-12-19T11:46:39.693Z,12.00
2022-12-19T11:49:12.929Z,12.00
2022-12-19T11:51:40.206Z,12.10
2022-12-19T11:54:26.512Z,12.10
2022-12-19T11:56:53.694Z,12.10
2022-12-19T11:59:31.941Z,12.10
2022-12-19T12:02:16.593Z,12.20
2022-12-19T12:04:49.401Z,12.20
2022-12-19T12:07:43.184Z,12.20
2022-12-19T12:16:18.589Z,12.20
2022-12-19T12:25:11.530Z,12.20
2022-12-19T12:27:21.668Z,12.20
2022-12-19T12:31:22.235Z,12.20
2022-12-19T12:31:44.719Z,12.30
2022-12-19T12:31:44.836Z,12.30
2022-12-19T12:32:06.513Z,12.20
2022-12-19T12:35:15.278Z,12.30
2022-12-19T12:38:52.235Z,12.40
2022-12-19T12:42:06.482Z,12.40
2022-12-19T12:44:45.237Z,12.50
2022-12-19T12:47:25.698Z,12.50
2022-12-19T12:50:05.749Z,12.50
2022-12-19T12:52:47.989Z,12.50
2022-12-19T12:55:40.238Z,12.60
2022-12-19T12:59:04.022Z,12.60
2022-12-19T13:01:40.364Z,12.60
2022-12-19T13:04:13.516Z,12.60
2022-12-19T13:06:49.544Z,12.60
2022-12-19T13:09:31.600Z,12.60
2022-12-19T13:12:21.808Z,12.60
2022-12-19T13:14:52.269Z,12.60
2022-12-19T13:17:47.920Z,12.60
2022-12-19T13:20:26.031Z,12.60
2022-12-19T13:22:58.342Z,12.60
2022-12-19T13:25:34.594Z,12.60
2022-12-19T13:28:01.462Z,12.70
2022-12-19T13:30:50.092Z,12.70
2022-12-19T13:33:21.869Z,12.70
2022-12-19T13:39:46.886Z,12.70
2022-12-19T13:39:55.642Z,12.70
2022-12-19T13:41:59.951Z,12.70
2022-12-19T13:44:27.051Z,12.70
2022-12-19T13:46:55.622Z,12.70
2022-12-19T13:49:34.768Z,12.60
2022-12-19T13:52:04.173Z,12.70
2022-12-19T13:54:37.601Z,12.70
2022-12-19T13:57:27.573Z,12.70
2022-12-19T14:00:00.555Z,12.80
2022-12-19T14:02:54.399Z,12.80
2022-12-19T14:06:16.266Z,12.80
2022-12-19T14:08:28.853Z,12.80
2022-12-19T14:11:34.696Z,12.80
2022-12-19T14:14:19.233Z,12.80
2022-12-19T14:16:51.876Z,12.80
2022-12-19T14:19:29.012Z,12.90
2022-12-19T14:22:20.647Z,12.90
2022-12-19T14:25:49.269Z,12.90
2022-12-19T14:28:21.684Z,12.80
2022-12-19T14:30:49.902Z,12.80
2022-12-19T14:33:44.716Z,12.80
2022-12-19T14:36:33.302Z,12.80
2022-12-19T14:39:23.170Z,12.80
2022-12-19T14:42:10.013Z,12.80
2022-12-19T14:51:42.599Z,12.80
2022-12-19T14:52:51.793Z,12.80
2022-12-19T14:54:22.685Z,12.90
2022-12-19T14:54:52.804Z,12.90
2022-12-19T14:59:18.736Z,12.90
2022-12-19T15:01:52.942Z,12.90
2022-12-19T15:04:49.092Z,12.90
2022-12-19T15:07:25.110Z,12.90
2022-12-19T15:11:07.500Z,12.90
2022-12-19T15:14:51.497Z,12.90
2022-12-19T15:16:02.986Z,12.90
2022-12-19T15:18:33.127Z,12.90
2022-12-19T15:21:04.115Z,12.90
2022-12-19T15:23:31.706Z,12.90
2022-12-19T15:26:07.893Z,12.90
2022-12-19T15:28:42.211Z,12.90
2022-12-19T15:31:34.758Z,12.90
2022-12-19T15:34:36.363Z,12.80
2022-12-19T15:37:05.203Z,12.80
2022-12-19T15:39:32.424Z,12.80
2022-12-19T15:42:01.461Z,12.80
2022-12-19T15:44:36.972Z,12.70
2022-12-19T15:47:37.262Z,12.70
2022-12-19T15:50:23.951Z,12.70
2022-12-19T15:53:02.175Z,12.70
2022-12-19T15:55:30.604Z,12.70
2022-12-19T15:58:05.360Z,12.60
2022-12-19T16:00:35.745Z,12.70
2022-12-19T16:05:50.099Z,12.60
2022-12-19T16:08:20.786Z,12.60
2022-12-19T16:10:56.017Z,12.60
2022-12-19T16:13:31.288Z,12.60
2022-12-19T16:15:58.843Z,12.60
2022-12-19T16:18:26.496Z,12.60
2022-12-19T16:20:53.554Z,12.60
2022-12-19T16:23:22.408Z,12.60
2022-12-19T16:25:53.547Z,12.60
2022-12-19T16:28:29.391Z,12.60
2022-12-19T16:31:00.112Z,12.60
2022-12-19T16:33:31.044Z,12.60
2022-12-19T16:36:06.958Z,12.70
2022-12-19T16:38:34.710Z,12.70
2022-12-19T16:41:01.914Z,12.70
2022-12-19T16:43:47.187Z,12.70
2022-12-19T16:46:23.520Z,12.70
2022-12-19T16:48:50.713Z,12.80
2022-12-19T16:51:23.604Z,12.80
2022-12-19T16:53:53.046Z,12.80
2022-12-19T16:56:25.431Z,12.80
2022-12-19T16:58:52.830Z,12.80
2022-12-19T17:01:20.658Z,12.80
2022-12-19T17:03:47.611Z,12.80
2022-12-19T17:06:19.914Z,12.90
2022-12-19T17:08:47.309Z,12.80
2022-12-19T17:11:17.539Z,12.90
2022-12-19T17:13:46.019Z,12.90
2022-12-19T17:16:13.381Z,12.90
2022-12-19T17:18:42.694Z,12.90
2022-12-19T17:21:21.514Z,12.90
2022-12-19T17:23:49.807Z,12.90
2022-12-19T17:26:18.125Z,12.90
2022-12-19T17:28:49.000Z,12.90
2022-12-19T17:31:38.130Z,12.90
2022-12-19T17:34:18.005Z,12.90
2022-12-19T17:36:45.356Z,12.80
2022-12-19T17:39:30.148Z,12.80
2022-12-19T17:42:09.844Z,12.80
2022-12-19T17:44:36.865Z,12.80
2022-12-19T17:47:04.630Z,12.80
2022-12-19T17:49:32.630Z,12.70
2022-12-19T17:52:00.292Z,12.80
2022-12-19T17:54:27.549Z,12.70
2022-12-19T17:56:55.162Z,12.70
2022-12-19T17:59:22.069Z,12.80
2022-12-19T18:01:49.062Z,12.70
2022-12-19T18:04:22.615Z,12.70
2022-12-19T18:06:49.538Z,12.80
2022-12-19T18:09:20.745Z,12.70
2022-12-19T18:11:49.851Z,12.80
2022-12-19T18:14:17.270Z,12.80
2022-12-19T18:16:45.750Z,12.80
2022-12-19T18:19:24.756Z,12.80
2022-12-19T18:21:51.900Z,12.90
2022-12-19T18:24:18.865Z,12.90
2022-12-19T18:26:45.733Z,12.90
2022-12-19T18:29:12.725Z,12.90
2022-12-19T18:31:46.452Z,12.90
2022-12-19T18:34:25.574Z,13.00
2022-12-19T18:36:53.165Z,12.90
2022-12-19T18:39:20.047Z,13.00
2022-12-19T18:41:47.291Z,13.00
2022-12-19T18:44:14.418Z,12.90
2022-12-19T18:46:41.725Z,13.00
2022-12-19T18:49:14.032Z,12.90
2022-12-19T18:51:41.351Z,12.90
2022-12-19T18:54:17.173Z,13.00
2022-12-19T18:56:44.554Z,13.00
2022-12-19T18:59:11.518Z,13.00
2022-12-19T19:01:43.895Z,12.90
2022-12-19T19:04:13.178Z,13.00
2022-12-19T19:06:48.304Z,12.90
2022-12-19T19:09:18.616Z,12.90
2022-12-19T19:12:13.127Z,12.90
2022-12-19T19:14:41.494Z,12.90
2022-12-19T19:17:23.399Z,12.90
2022-12-19T19:19:50.383Z,12.80
2022-12-19T19:22:17.262Z,12.80
2022-12-19T19:24:44.178Z,12.80
2022-12-19T19:27:11.341Z,12.80
2022-12-19T19:29:38.907Z,12.80
2022-12-19T19:32:05.883Z,12.80
2022-12-19T19:34:37.448Z,12.80
2022-12-19T19:37:07.953Z,12.80
2022-12-19T19:39:35.380Z,12.70
2022-12-19T19:42:03.093Z,12.70
2022-12-19T19:44:30.288Z,12.60
2022-12-19T19:46:57.652Z,12.70
2022-12-19T19:49:24.583Z,12.70
2022-12-19T19:51:54.365Z,12.60
2022-12-19T19:54:25.480Z,12.60
2022-12-19T19:56:52.492Z,12.50
2022-12-19T19:59:19.794Z,12.50
2022-12-19T20:01:46.804Z,12.50
2022-12-19T20:04:14.206Z,12.50
2022-12-19T20:06:41.166Z,12.40
2022-12-19T20:09:09.428Z,12.40
2022-12-19T20:11:36.395Z,12.30
2022-12-19T20:14:04.424Z,12.30
2022-12-19T20:16:31.536Z,12.30
2022-12-19T20:18:58.496Z,12.30
2022-12-19T20:21:25.457Z,12.30
2022-12-19T20:23:52.471Z,12.30
2022-12-19T20:26:19.433Z,12.30
2022-12-19T20:28:49.456Z,12.40
2022-12-19T20:31:18.978Z,12.40
2022-12-19T20:33:46.412Z,12.40
2022-12-19T20:36:14.036Z,12.40
2022-12-19T20:38:41.111Z,12.30
2022-12-19T20:41:08.084Z,12.30
2022-12-19T20:43:35.653Z,12.30
2022-12-19T20:46:05.429Z,12.30
2022-12-19T20:48:32.818Z,12.30
2022-12-19T20:51:01.227Z,12.30
2022-12-19T20:53:28.461Z,12.30
2022-12-19T20:55:58.397Z,12.30
2022-12-19T20:58:30.157Z,12.30
2022-12-19T21:01:02.449Z,12.30
2022-12-19T21:03:30.270Z,12.30
2022-12-19T21:05:58.011Z,12.30
2022-12-19T21:08:26.295Z,12.30
2022-12-19T21:10:54.258Z,12.30
2022-12-19T21:13:21.801Z,12.20
2022-12-19T21:15:56.800Z,12.30
2022-12-19T21:18:23.793Z,12.20
2022-12-19T21:20:53.001Z,12.30
2022-12-19T21:23:20.354Z,12.30
2022-12-19T21:25:47.334Z,12.30
2022-12-19T21:28:14.368Z,12.30
2022-12-19T21:30:41.587Z,12.30
2022-12-19T21:33:09.352Z,12.40
2022-12-19T21:35:37.960Z,12.40
2022-12-19T21:38:05.045Z,12.40
2022-12-19T21:40:31.932Z,12.40
2022-12-19T21:42:58.892Z,12.50
2022-12-19T21:45:25.724Z,12.50
2022-12-19T21:47:52.605Z,12.50
2022-12-19T21:50:19.612Z,12.50
2022-12-19T21:52:49.039Z,12.50
2022-12-19T21:55:18.425Z,12.50
2022-12-19T21:57:45.356Z,12.50
2022-12-19T22:00:13.270Z,12.50
2022-12-19T22:02:55.445Z,12.50
2022-12-19T22:05:27.041Z,12.60
2022-12-19T22:07:53.897Z,12.60
2022-12-19T22:10:20.907Z,12.60
2022-12-19T22:12:48.371Z,12.60
2022-12-19T22:15:15.217Z,12.60
2022-12-19T22:17:43.825Z,12.60
2022-12-19T22:20:11.034Z,12.60
2022-12-19T22:22:38.007Z,12.60
2022-12-19T22:25:05.203Z,12.50
2022-12-19T22:27:32.128Z,12.50
2022-12-19T22:30:02.128Z,12.50
2022-12-19T22:32:31.801Z,12.40
2022-12-19T22:34:58.701Z,12.40
2022-12-19T22:37:25.565Z,12.40
2022-12-19T22:39:52.476Z,12.40
2022-12-19T22:42:19.304Z,12.30
2022-12-19T22:44:46.274Z,12.30
2022-12-19T22:47:13.161Z,12.30
2022-12-19T22:49:40.228Z,12.30
2022-12-19T22:52:07.052Z,12.20
2022-12-19T22:54:33.945Z,12.20
2022-12-19T22:57:00.789Z,12.20
2022-12-19T22:59:27.690Z,12.20
2022-12-19T23:01:54.678Z,12.20
2022-12-19T23:04:21.815Z,12.20
2022-12-19T23:06:48.747Z,12.20
2022-12-19T23:09:17.686Z,12.20
2022-12-19T23:11:47.743Z,12.20
2022-12-19T23:14:16.727Z,12.30
2022-12-19T23:16:45.018Z,12.30
2022-12-19T23:19:13.888Z,12.30
2022-12-19T23:21:41.098Z,12.30
2022-12-19T23:24:11.780Z,12.30
2022-12-19T23:26:39.290Z,12.30
2022-12-19T23:29:09.790Z,12.30
2022-12-19T23:31:40.644Z,12.30
2022-12-19T23:34:08.219Z,12.30
2022-12-19T23:39:21.972Z,12.30
2022-12-19T23:41:48.826Z,12.30
2022-12-19T23:44:16.039Z,12.30
2022-12-19T23:46:42.974Z,12.40
2022-12-19T23:49:10.037Z,12.40
2022-12-19T23:51:36.986Z,12.40
2022-12-19T23:54:03.980Z,12.40
2022-12-19T23:56:32.426Z,12.40
2022-12-19T23:58:59.363Z,12.40
